sensor_id;sensor_type;location;lat;lon;timestamp;P1;durP1;ratioP1;P2;durP2;ratioP2
9940;SDS011;5009;50.656;7.188;2023-02-23T03:59:56;36.90;;;32.17;;
9940;SDS011;5009;50.656;7.188;2023-02-23T04:02:43;38.67;;;33.97;;
9940;SDS011;5009;50.656;7.188;2023-02-23T04:05:29;40.50;;;33.10;;
9940;SDS011;5009;50.656;7.188;2023-02-23T04:08:15;39.07;;;33.77;;
9940;SDS011;5009;50.656;7.188;2023-02-23T04:11:23;40.97;;;33.83;;
9940;SDS011;5009;50.656;7.188;2023-02-23T04:14:22;38.70;;;33.03;;
9940;SDS011;5009;50.656;7.188;2023-02-23T04:17:07;41.77;;;34.97;;
9940;SDS011;5009;50.656;7.188;2023-02-23T04:19:34;39.60;;;33.73;;
9940;SDS011;5009;50.656;7.188;2023-02-23T04:22:00;39.10;;;32.77;;
9940;SDS011;5009;50.656;7.188;2023-02-23T04:24:25;36.77;;;32.77;;
9940;SDS011;5009;50.656;7.188;2023-02-23T04:26:51;36.13;;;31.20;;
9940;SDS011;5009;50.656;7.188;2023-02-23T04:29:16;37.30;;;33.27;;
9940;SDS011;5009;50.656;7.188;2023-02-23T04:31:42;37.57;;;33.47;;
9940;SDS011;5009;50.656;7.188;2023-02-23T04:34:08;36.57;;;32.23;;
9940;SDS011;5009;50.656;7.188;2023-02-23T04:36:34;39.40;;;32.03;;
9940;SDS011;5009;50.656;7.188;2023-02-23T04:39:00;37.53;;;33.10;;
9940;SDS011;5009;50.656;7.188;2023-02-23T04:41:26;37.07;;;33.20;;
9940;SDS011;5009;50.656;7.188;2023-02-23T04:43:54;38.30;;;32.07;;
9940;SDS011;5009;50.656;7.188;2023-02-23T04:46:20;36.43;;;31.43;;
9940;SDS011;5009;50.656;7.188;2023-02-23T04:48:48;37.30;;;32.70;;
9940;SDS011;5009;50.656;7.188;2023-02-23T04:51:17;36.10;;;32.20;;
9940;SDS011;5009;50.656;7.188;2023-02-23T04:53:43;37.73;;;33.73;;
9940;SDS011;5009;50.656;7.188;2023-02-23T04:56:08;34.77;;;30.93;;
9940;SDS011;5009;50.656;7.188;2023-02-23T04:58:34;36.03;;;32.17;;
9940;SDS011;5009;50.656;7.188;2023-02-23T05:01:04;35.27;;;31.50;;
9940;SDS011;5009;50.656;7.188;2023-02-23T05:03:30;33.70;;;30.20;;
9940;SDS011;5009;50.656;7.188;2023-02-23T05:05:56;33.87;;;30.37;;
9940;SDS011;5009;50.656;7.188;2023-02-23T05:08:21;32.03;;;28.77;;
9940;SDS011;5009;50.656;7.188;2023-02-23T05:10:47;33.93;;;29.07;;
9940;SDS011;5009;50.656;7.188;2023-02-23T05:13:12;32.43;;;28.93;;
9940;SDS011;5009;50.656;7.188;2023-02-23T05:15:38;31.37;;;28.07;;
9940;SDS011;5009;50.656;7.188;2023-02-23T05:18:03;31.27;;;27.90;;
9940;SDS011;5009;50.656;7.188;2023-02-23T05:20:30;30.57;;;27.27;;
9940;SDS011;5009;50.656;7.188;2023-02-23T05:22:56;31.27;;;28.07;;
9940;SDS011;5009;50.656;7.188;2023-02-23T05:25:22;30.00;;;26.93;;
9940;SDS011;5009;50.656;7.188;2023-02-23T05:27:48;30.10;;;26.90;;
9940;SDS011;5009;50.656;7.188;2023-02-23T05:30:14;32.23;;;28.87;;
9940;SDS011;5009;50.656;7.188;2023-02-23T05:32:39;34.83;;;30.77;;
9940;SDS011;5009;50.656;7.188;2023-02-23T05:35:05;35.37;;;31.57;;
9940;SDS011;5009;50.656;7.188;2023-02-23T05:37:31;39.50;;;35.27;;
9940;SDS011;5009;50.656;7.188;2023-02-23T05:39:57;41.90;;;37.50;;
9940;SDS011;5009;50.656;7.188;2023-02-23T05:42:23;44.50;;;39.80;;
9940;SDS011;5009;50.656;7.188;2023-02-23T05:44:48;45.30;;;40.53;;
9940;SDS011;5009;50.656;7.188;2023-02-23T05:47:14;47.97;;;42.83;;
9940;SDS011;5009;50.656;7.188;2023-02-23T05:49:39;48.60;;;43.57;;
9940;SDS011;5009;50.656;7.188;2023-02-23T05:52:05;53.63;;;46.73;;
9940;SDS011;5009;50.656;7.188;2023-02-23T05:54:31;53.27;;;46.33;;
9940;SDS011;5009;50.656;7.188;2023-02-23T05:56:56;54.07;;;46.87;;
9940;SDS011;5009;50.656;7.188;2023-02-23T05:59:22;53.27;;;47.23;;
9940;SDS011;5009;50.656;7.188;2023-02-23T06:01:47;53.97;;;47.80;;
9940;SDS011;5009;50.656;7.188;2023-02-23T06:04:13;54.57;;;48.77;;
9940;SDS011;5009;50.656;7.188;2023-02-23T06:06:38;56.37;;;47.13;;
9940;SDS011;5009;50.656;7.188;2023-02-23T06:09:04;53.60;;;47.90;;
9940;SDS011;5009;50.656;7.188;2023-02-23T06:11:30;54.37;;;48.67;;
9940;SDS011;5009;50.656;7.188;2023-02-23T06:13:58;54.60;;;48.60;;
9940;SDS011;5009;50.656;7.188;2023-02-23T06:16:25;53.17;;;47.50;;
9940;SDS011;5009;50.656;7.188;2023-02-23T06:18:51;54.07;;;48.30;;
9940;SDS011;5009;50.656;7.188;2023-02-23T06:21:17;51.53;;;46.03;;
9940;SDS011;5009;50.656;7.188;2023-02-23T06:23:42;53.70;;;48.00;;
9940;SDS011;5009;50.656;7.188;2023-02-23T06:26:08;52.70;;;47.07;;
9940;SDS011;5009;50.656;7.188;2023-02-23T06:28:33;52.43;;;46.87;;
9940;SDS011;5009;50.656;7.188;2023-02-23T06:30:59;52.50;;;47.03;;
9940;SDS011;5009;50.656;7.188;2023-02-23T06:33:25;53.40;;;47.73;;
9940;SDS011;5009;50.656;7.188;2023-02-23T06:35:50;54.97;;;49.17;;
9940;SDS011;5009;50.656;7.188;2023-02-23T06:38:16;54.40;;;48.70;;
9940;SDS011;5009;50.656;7.188;2023-02-23T06:40:42;54.83;;;48.90;;
9940;SDS011;5009;50.656;7.188;2023-02-23T06:43:08;54.23;;;46.80;;
9940;SDS011;5009;50.656;7.188;2023-02-23T06:45:34;51.60;;;46.17;;
9940;SDS011;5009;50.656;7.188;2023-02-23T06:47:59;52.10;;;46.77;;
9940;SDS011;5009;50.656;7.188;2023-02-23T06:50:25;53.93;;;48.30;;
9940;SDS011;5009;50.656;7.188;2023-02-23T06:52:51;52.93;;;47.30;;
9940;SDS011;5009;50.656;7.188;2023-02-23T06:55:17;53.53;;;47.77;;
9940;SDS011;5009;50.656;7.188;2023-02-23T06:57:42;52.00;;;46.63;;
9940;SDS011;5009;50.656;7.188;2023-02-23T07:00:11;53.93;;;48.10;;
9940;SDS011;5009;50.656;7.188;2023-02-23T07:02:39;52.87;;;47.13;;
9940;SDS011;5009;50.656;7.188;2023-02-23T07:05:05;54.30;;;48.40;;
9940;SDS011;5009;50.656;7.188;2023-02-23T07:07:31;57.73;;;50.93;;
9940;SDS011;5009;50.656;7.188;2023-02-23T07:09:57;51.37;;;45.97;;
9940;SDS011;5009;50.656;7.188;2023-02-23T07:12:23;53.70;;;47.93;;
9940;SDS011;5009;50.656;7.188;2023-02-23T07:14:48;53.00;;;47.40;;
9940;SDS011;5009;50.656;7.188;2023-02-23T07:17:14;53.73;;;48.00;;
9940;SDS011;5009;50.656;7.188;2023-02-23T07:19:39;52.33;;;46.70;;
9940;SDS011;5009;50.656;7.188;2023-02-23T07:22:05;51.80;;;46.30;;
9940;SDS011;5009;50.656;7.188;2023-02-23T07:24:30;51.90;;;46.30;;
9940;SDS011;5009;50.656;7.188;2023-02-23T07:26:56;49.67;;;44.43;;
9940;SDS011;5009;50.656;7.188;2023-02-23T07:29:22;49.60;;;44.30;;
9940;SDS011;5009;50.656;7.188;2023-02-23T07:31:48;52.50;;;47.00;;
9940;SDS011;5009;50.656;7.188;2023-02-23T07:34:14;48.20;;;43.17;;
9940;SDS011;5009;50.656;7.188;2023-02-23T07:36:40;47.43;;;42.40;;
9940;SDS011;5009;50.656;7.188;2023-02-23T07:39:05;48.50;;;43.20;;
9940;SDS011;5009;50.656;7.188;2023-02-23T07:41:31;47.37;;;42.47;;
9940;SDS011;5009;50.656;7.188;2023-02-23T07:43:57;49.20;;;44.00;;
9940;SDS011;5009;50.656;7.188;2023-02-23T07:46:23;48.73;;;43.60;;
9940;SDS011;5009;50.656;7.188;2023-02-23T07:48:50;47.27;;;42.37;;
9940;SDS011;5009;50.656;7.188;2023-02-23T07:51:16;46.13;;;41.20;;
9940;SDS011;5009;50.656;7.188;2023-02-23T07:53:42;44.80;;;40.03;;
9940;SDS011;5009;50.656;7.188;2023-02-23T07:56:08;44.93;;;40.33;;
9940;SDS011;5009;50.656;7.188;2023-02-23T07:58:36;45.00;;;40.37;;
9940;SDS011;5009;50.656;7.188;2023-02-23T08:01:03;42.43;;;38.07;;
9940;SDS011;5009;50.656;7.188;2023-02-23T08:03:28;43.00;;;38.60;;
9940;SDS011;5009;50.656;7.188;2023-02-23T08:05:54;43.57;;;39.27;;
9940;SDS011;5009;50.656;7.188;2023-02-23T08:08:20;42.87;;;38.50;;
9940;SDS011;5009;50.656;7.188;2023-02-23T08:10:46;44.43;;;39.83;;
9940;SDS011;5009;50.656;7.188;2023-02-23T08:13:12;43.47;;;38.97;;
9940;SDS011;5009;50.656;7.188;2023-02-23T08:15:39;43.10;;;38.67;;
9940;SDS011;5009;50.656;7.188;2023-02-23T08:18:05;41.77;;;37.53;;
9940;SDS011;5009;50.656;7.188;2023-02-23T08:20:30;42.00;;;37.87;;
9940;SDS011;5009;50.656;7.188;2023-02-23T08:22:56;38.60;;;34.80;;
9940;SDS011;5009;50.656;7.188;2023-02-23T08:25:23;38.73;;;34.67;;
9940;SDS011;5009;50.656;7.188;2023-02-23T08:27:50;38.60;;;34.70;;
9940;SDS011;5009;50.656;7.188;2023-02-23T08:30:16;37.27;;;33.40;;
9940;SDS011;5009;50.656;7.188;2023-02-23T08:32:44;35.17;;;31.67;;
9940;SDS011;5009;50.656;7.188;2023-02-23T08:35:09;35.93;;;32.23;;
9940;SDS011;5009;50.656;7.188;2023-02-23T08:37:35;34.83;;;31.13;;
9940;SDS011;5009;50.656;7.188;2023-02-23T08:40:01;35.37;;;31.93;;
9940;SDS011;5009;50.656;7.188;2023-02-23T08:42:27;35.23;;;31.63;;
9940;SDS011;5009;50.656;7.188;2023-02-23T08:44:52;33.40;;;29.90;;
9940;SDS011;5009;50.656;7.188;2023-02-23T08:47:18;33.57;;;29.97;;
9940;SDS011;5009;50.656;7.188;2023-02-23T08:49:48;32.53;;;29.20;;
9940;SDS011;5009;50.656;7.188;2023-02-23T08:52:14;32.80;;;29.50;;
9940;SDS011;5009;50.656;7.188;2023-02-23T08:54:40;34.63;;;31.13;;
9940;SDS011;5009;50.656;7.188;2023-02-23T08:57:06;32.43;;;28.90;;
9940;SDS011;5009;50.656;7.188;2023-02-23T08:59:31;33.53;;;30.17;;
9940;SDS011;5009;50.656;7.188;2023-02-23T09:01:57;34.33;;;30.73;;
9940;SDS011;5009;50.656;7.188;2023-02-23T09:04:23;33.17;;;29.77;;
9940;SDS011;5009;50.656;7.188;2023-02-23T09:06:48;30.60;;;27.57;;
9940;SDS011;5009;50.656;7.188;2023-02-23T09:09:14;33.63;;;30.00;;
9940;SDS011;5009;50.656;7.188;2023-02-23T09:11:40;33.20;;;29.80;;
9940;SDS011;5009;50.656;7.188;2023-02-23T09:14:06;32.63;;;29.33;;
9940;SDS011;5009;50.656;7.188;2023-02-23T09:16:32;33.63;;;30.30;;
9940;SDS011;5009;50.656;7.188;2023-02-23T09:18:59;32.73;;;29.20;;
9940;SDS011;5009;50.656;7.188;2023-02-23T09:21:28;33.27;;;29.60;;
9940;SDS011;5009;50.656;7.188;2023-02-23T09:23:54;33.93;;;30.43;;
9940;SDS011;5009;50.656;7.188;2023-02-23T09:26:21;32.77;;;29.30;;
9940;SDS011;5009;50.656;7.188;2023-02-23T09:28:48;33.20;;;29.23;;
9940;SDS011;5009;50.656;7.188;2023-02-23T09:31:15;31.97;;;28.63;;
9940;SDS011;5009;50.656;7.188;2023-02-23T09:33:43;30.63;;;27.43;;
9940;SDS011;5009;50.656;7.188;2023-02-23T09:36:10;32.43;;;29.03;;
9940;SDS011;5009;50.656;7.188;2023-02-23T09:38:41;32.13;;;28.73;;
9940;SDS011;5009;50.656;7.188;2023-02-23T09:41:17;32.53;;;28.80;;
9940;SDS011;5009;50.656;7.188;2023-02-23T09:44:20;32.67;;;29.17;;
9940;SDS011;5009;50.656;7.188;2023-02-23T09:46:56;32.53;;;29.03;;
9940;SDS011;5009;50.656;7.188;2023-02-23T09:49:54;32.67;;;28.70;;
9940;SDS011;5009;50.656;7.188;2023-02-23T09:52:25;34.07;;;29.70;;
9940;SDS011;5009;50.656;7.188;2023-02-23T09:55:00;32.80;;;29.30;;
9940;SDS011;5009;50.656;7.188;2023-02-23T09:57:30;34.77;;;30.27;;
9940;SDS011;5009;50.656;7.188;2023-02-23T10:00:02;33.50;;;29.90;;
9940;SDS011;5009;50.656;7.188;2023-02-23T10:02:37;33.00;;;29.23;;
9940;SDS011;5009;50.656;7.188;2023-02-23T10:05:12;35.23;;;28.23;;
9940;SDS011;5009;50.656;7.188;2023-02-23T10:07:49;34.20;;;29.00;;
9940;SDS011;5009;50.656;7.188;2023-02-23T10:13:20;33.77;;;30.03;;
9940;SDS011;5009;50.656;7.188;2023-02-23T10:16:01;33.03;;;29.23;;
9940;SDS011;5009;50.656;7.188;2023-02-23T10:18:37;32.60;;;28.70;;
9940;SDS011;5009;50.656;7.188;2023-02-23T10:24:13;31.10;;;27.70;;
9940;SDS011;5009;50.656;7.188;2023-02-23T10:27:24;29.40;;;26.30;;
9940;SDS011;5009;50.656;7.188;2023-02-23T10:29:57;31.33;;;27.97;;
9940;SDS011;5009;50.656;7.188;2023-02-23T10:32:31;31.43;;;27.83;;
9940;SDS011;5009;50.656;7.188;2023-02-23T10:35:11;32.40;;;28.13;;
9940;SDS011;5009;50.656;7.188;2023-02-23T10:37:41;29.40;;;26.13;;
9940;SDS011;5009;50.656;7.188;2023-02-23T10:40:11;28.37;;;25.27;;
9940;SDS011;5009;50.656;7.188;2023-02-23T10:42:42;28.50;;;25.43;;
9940;SDS011;5009;50.656;7.188;2023-02-23T10:45:15;28.57;;;25.37;;
9940;SDS011;5009;50.656;7.188;2023-02-23T10:47:46;30.90;;;26.27;;
9940;SDS011;5009;50.656;7.188;2023-02-23T10:50:29;30.13;;;26.93;;
9940;SDS011;5009;50.656;7.188;2023-02-23T10:53:03;31.50;;;28.07;;
9940;SDS011;5009;50.656;7.188;2023-02-23T10:55:40;32.27;;;28.50;;
9940;SDS011;5009;50.656;7.188;2023-02-23T10:58:09;30.00;;;26.80;;
9940;SDS011;5009;50.656;7.188;2023-02-23T11:00:41;27.53;;;24.77;;
9940;SDS011;5009;50.656;7.188;2023-02-23T11:03:38;28.67;;;25.63;;
9940;SDS011;5009;50.656;7.188;2023-02-23T11:06:04;27.37;;;24.47;;
9940;SDS011;5009;50.656;7.188;2023-02-23T11:08:31;30.00;;;25.63;;
9940;SDS011;5009;50.656;7.188;2023-02-23T11:13:43;26.27;;;23.47;;
9940;SDS011;5009;50.656;7.188;2023-02-23T11:16:14;26.97;;;24.10;;
9940;SDS011;5009;50.656;7.188;2023-02-23T11:18:52;24.77;;;22.27;;
9940;SDS011;5009;50.656;7.188;2023-02-23T11:21:22;24.63;;;21.93;;
9940;SDS011;5009;50.656;7.188;2023-02-23T11:23:52;26.83;;;23.57;;
9940;SDS011;5009;50.656;7.188;2023-02-23T11:26:29;24.47;;;22.07;;
9940;SDS011;5009;50.656;7.188;2023-02-23T11:29:02;23.53;;;20.97;;
9940;SDS011;5009;50.656;7.188;2023-02-23T11:31:36;24.57;;;21.97;;
9940;SDS011;5009;50.656;7.188;2023-02-23T11:34:04;23.13;;;20.80;;
9940;SDS011;5009;50.656;7.188;2023-02-23T11:36:34;23.90;;;21.40;;
9940;SDS011;5009;50.656;7.188;2023-02-23T11:41:26;25.33;;;21.43;;
9940;SDS011;5009;50.656;7.188;2023-02-23T11:43:56;24.97;;;22.30;;
9940;SDS011;5009;50.656;7.188;2023-02-23T11:46:23;23.27;;;20.90;;
9940;SDS011;5009;50.656;7.188;2023-02-23T11:53:50;21.80;;;19.70;;
9940;SDS011;5009;50.656;7.188;2023-02-23T11:56:20;20.67;;;18.57;;
9940;SDS011;5009;50.656;7.188;2023-02-23T11:58:49;21.47;;;19.20;;
9940;SDS011;5009;50.656;7.188;2023-02-23T12:01:42;20.77;;;18.57;;
9940;SDS011;5009;50.656;7.188;2023-02-23T12:04:24;21.47;;;19.27;;
9940;SDS011;5009;50.656;7.188;2023-02-23T12:09:51;21.60;;;19.50;;
9940;SDS011;5009;50.656;7.188;2023-02-23T12:12:25;20.50;;;18.40;;
9940;SDS011;5009;50.656;7.188;2023-02-23T12:15:04;21.00;;;18.90;;
9940;SDS011;5009;50.656;7.188;2023-02-23T12:17:46;21.70;;;19.43;;
9940;SDS011;5009;50.656;7.188;2023-02-23T12:20:20;20.23;;;18.13;;
9940;SDS011;5009;50.656;7.188;2023-02-23T12:23:02;20.40;;;18.33;;
9940;SDS011;5009;50.656;7.188;2023-02-23T12:28:17;18.90;;;16.97;;
9940;SDS011;5009;50.656;7.188;2023-02-23T12:33:43;18.00;;;16.13;;
9940;SDS011;5009;50.656;7.188;2023-02-23T12:36:57;17.70;;;15.87;;
9940;SDS011;5009;50.656;7.188;2023-02-23T12:39:16;18.33;;;16.43;;
9940;SDS011;5009;50.656;7.188;2023-02-23T12:41:57;18.00;;;16.30;;
9940;SDS011;5009;50.656;7.188;2023-02-23T12:50:02;18.47;;;16.37;;
9940;SDS011;5009;50.656;7.188;2023-02-23T12:52:44;18.33;;;16.43;;
9940;SDS011;5009;50.656;7.188;2023-02-23T12:58:23;18.33;;;16.43;;
9940;SDS011;5009;50.656;7.188;2023-02-23T13:08:55;19.97;;;16.57;;
9940;SDS011;5009;50.656;7.188;2023-02-23T13:11:55;19.83;;;17.40;;
9940;SDS011;5009;50.656;7.188;2023-02-23T13:20:00;20.00;;;17.90;;
9940;SDS011;5009;50.656;7.188;2023-02-23T13:23:03;19.40;;;17.43;;
9940;SDS011;5009;50.656;7.188;2023-02-23T13:31:31;21.23;;;18.93;;
9940;SDS011;5009;50.656;7.188;2023-02-23T13:33:59;22.30;;;19.60;;
9940;SDS011;5009;50.656;7.188;2023-02-23T13:36:27;22.30;;;19.13;;
9940;SDS011;5009;50.656;7.188;2023-02-23T13:39:18;22.50;;;20.10;;
9940;SDS011;5009;50.656;7.188;2023-02-23T13:44:42;20.50;;;18.37;;
9940;SDS011;5009;50.656;7.188;2023-02-23T13:47:19;21.00;;;18.80;;
9940;SDS011;5009;50.656;7.188;2023-02-23T13:49:56;21.50;;;19.30;;
9940;SDS011;5009;50.656;7.188;2023-02-23T13:52:40;22.67;;;20.33;;
9940;SDS011;5009;50.656;7.188;2023-02-23T13:57:53;25.97;;;23.17;;
9940;SDS011;5009;50.656;7.188;2023-02-23T14:00:26;29.67;;;25.87;;
9940;SDS011;5009;50.656;7.188;2023-02-23T14:02:53;41.67;;;35.47;;
9940;SDS011;5009;50.656;7.188;2023-02-23T14:05:19;46.13;;;39.20;;
9940;SDS011;5009;50.656;7.188;2023-02-23T14:08:06;48.20;;;41.50;;
9940;SDS011;5009;50.656;7.188;2023-02-23T14:10:43;57.27;;;40.87;;
9940;SDS011;5009;50.656;7.188;2023-02-23T14:21:02;38.33;;;32.03;;
9940;SDS011;5009;50.656;7.188;2023-02-23T14:26:36;39.87;;;30.33;;
9940;SDS011;5009;50.656;7.188;2023-02-23T14:34:52;38.47;;;26.80;;
9940;SDS011;5009;50.656;7.188;2023-02-23T14:42:35;34.23;;;26.83;;
9940;SDS011;5009;50.656;7.188;2023-02-23T14:47:44;39.50;;;26.97;;
9940;SDS011;5009;50.656;7.188;2023-02-23T14:50:13;39.70;;;28.00;;
9940;SDS011;5009;50.656;7.188;2023-02-23T14:52:49;37.57;;;28.60;;
9940;SDS011;5009;50.656;7.188;2023-02-23T14:55:21;37.50;;;28.43;;
9940;SDS011;5009;50.656;7.188;2023-02-23T14:57:49;39.43;;;29.07;;
9940;SDS011;5009;50.656;7.188;2023-02-23T15:00:22;38.80;;;30.33;;
9940;SDS011;5009;50.656;7.188;2023-02-23T15:03:03;36.90;;;28.93;;
9940;SDS011;5009;50.656;7.188;2023-02-23T15:05:40;40.03;;;29.47;;
9940;SDS011;5009;50.656;7.188;2023-02-23T15:08:08;38.53;;;30.20;;
9940;SDS011;5009;50.656;7.188;2023-02-23T15:10:40;37.00;;;30.20;;
9940;SDS011;5009;50.656;7.188;2023-02-23T15:13:08;36.23;;;29.67;;
9940;SDS011;5009;50.656;7.188;2023-02-23T15:15:41;36.97;;;29.47;;
9940;SDS011;5009;50.656;7.188;2023-02-23T15:21:35;42.37;;;30.13;;
9940;SDS011;5009;50.656;7.188;2023-02-23T15:24:10;39.80;;;31.33;;
9940;SDS011;5009;50.656;7.188;2023-02-23T15:26:38;42.20;;;31.80;;
9940;SDS011;5009;50.656;7.188;2023-02-23T15:29:18;43.10;;;32.73;;
9940;SDS011;5009;50.656;7.188;2023-02-23T15:31:49;45.60;;;34.17;;
9940;SDS011;5009;50.656;7.188;2023-02-23T15:34:18;47.77;;;34.57;;
9940;SDS011;5009;50.656;7.188;2023-02-23T15:36:58;47.23;;;34.53;;
9940;SDS011;5009;50.656;7.188;2023-02-23T15:42:05;42.60;;;32.23;;
9940;SDS011;5009;50.656;7.188;2023-02-23T15:44:35;43.30;;;31.43;;
9940;SDS011;5009;50.656;7.188;2023-02-23T15:47:03;43.07;;;31.30;;
9940;SDS011;5009;50.656;7.188;2023-02-23T15:49:30;41.50;;;31.50;;
9940;SDS011;5009;50.656;7.188;2023-02-23T15:51:59;43.70;;;31.50;;
9940;SDS011;5009;50.656;7.188;2023-02-23T15:57:16;42.87;;;30.10;;
9940;SDS011;5009;50.656;7.188;2023-02-23T15:59:50;42.33;;;30.17;;
9940;SDS011;5009;50.656;7.188;2023-02-23T16:02:18;42.37;;;30.10;;
9940;SDS011;5009;50.656;7.188;2023-02-23T16:04:47;44.53;;;30.70;;
9940;SDS011;5009;50.656;7.188;2023-02-23T16:07:18;39.97;;;29.27;;
9940;SDS011;5009;50.656;7.188;2023-02-23T16:09:51;38.53;;;29.20;;
9940;SDS011;5009;50.656;7.188;2023-02-23T16:12:29;41.17;;;29.80;;
9940;SDS011;5009;50.656;7.188;2023-02-23T16:15:00;36.23;;;28.13;;
9940;SDS011;5009;50.656;7.188;2023-02-23T16:17:31;41.63;;;28.17;;
9940;SDS011;5009;50.656;7.188;2023-02-23T16:22:45;40.00;;;28.90;;
9940;SDS011;5009;50.656;7.188;2023-02-23T16:25:12;35.33;;;26.93;;
9940;SDS011;5009;50.656;7.188;2023-02-23T16:27:39;36.90;;;27.77;;
9940;SDS011;5009;50.656;7.188;2023-02-23T16:30:20;33.70;;;25.77;;
9940;SDS011;5009;50.656;7.188;2023-02-23T16:33:05;34.17;;;26.90;;
9940;SDS011;5009;50.656;7.188;2023-02-23T16:35:38;33.13;;;25.27;;
9940;SDS011;5009;50.656;7.188;2023-02-23T16:38:14;36.33;;;26.77;;
9940;SDS011;5009;50.656;7.188;2023-02-23T16:40:47;35.07;;;25.83;;
9940;SDS011;5009;50.656;7.188;2023-02-23T16:43:13;35.00;;;25.67;;
9940;SDS011;5009;50.656;7.188;2023-02-23T16:45:40;36.00;;;26.23;;
9940;SDS011;5009;50.656;7.188;2023-02-23T16:48:13;33.20;;;25.17;;
9940;SDS011;5009;50.656;7.188;2023-02-23T16:50:40;30.37;;;23.63;;
9940;SDS011;5009;50.656;7.188;2023-02-23T16:53:07;30.23;;;23.53;;
9940;SDS011;5009;50.656;7.188;2023-02-23T16:55:35;30.83;;;23.77;;
9940;SDS011;5009;50.656;7.188;2023-02-23T16:58:06;32.07;;;23.57;;
9940;SDS011;5009;50.656;7.188;2023-02-23T17:00:39;30.23;;;23.60;;
9940;SDS011;5009;50.656;7.188;2023-02-23T17:03:04;31.40;;;23.33;;
9940;SDS011;5009;50.656;7.188;2023-02-23T17:05:30;31.73;;;23.20;;
9940;SDS011;5009;50.656;7.188;2023-02-23T17:07:56;31.40;;;24.60;;
9940;SDS011;5009;50.656;7.188;2023-02-23T17:10:24;26.37;;;22.03;;
9940;SDS011;5009;50.656;7.188;2023-02-23T17:12:59;31.07;;;24.27;;
9940;SDS011;5009;50.656;7.188;2023-02-23T17:15:29;28.40;;;23.10;;
9940;SDS011;5009;50.656;7.188;2023-02-23T17:17:59;28.40;;;23.13;;
9940;SDS011;5009;50.656;7.188;2023-02-23T17:20:25;30.43;;;24.17;;
9940;SDS011;5009;50.656;7.188;2023-02-23T17:22:53;31.10;;;24.13;;
9940;SDS011;5009;50.656;7.188;2023-02-23T17:25:20;32.47;;;25.10;;
9940;SDS011;5009;50.656;7.188;2023-02-23T17:27:47;33.97;;;24.80;;
9940;SDS011;5009;50.656;7.188;2023-02-23T17:30:20;30.93;;;24.27;;
9940;SDS011;5009;50.656;7.188;2023-02-23T17:32:46;31.77;;;24.23;;
9940;SDS011;5009;50.656;7.188;2023-02-23T17:35:13;29.40;;;22.47;;
9940;SDS011;5009;50.656;7.188;2023-02-23T17:37:38;30.90;;;23.70;;
9940;SDS011;5009;50.656;7.188;2023-02-23T17:40:05;28.13;;;22.50;;
9940;SDS011;5009;50.656;7.188;2023-02-23T17:42:32;32.13;;;23.87;;
9940;SDS011;5009;50.656;7.188;2023-02-23T17:44:59;27.80;;;22.87;;
9940;SDS011;5009;50.656;7.188;2023-02-23T17:47:29;28.97;;;23.40;;
9940;SDS011;5009;50.656;7.188;2023-02-23T17:49:56;30.50;;;24.73;;
9940;SDS011;5009;50.656;7.188;2023-02-23T17:52:22;28.87;;;22.70;;
9940;SDS011;5009;50.656;7.188;2023-02-23T17:54:48;32.27;;;24.87;;
9940;SDS011;5009;50.656;7.188;2023-02-23T17:57:14;31.90;;;24.50;;
9940;SDS011;5009;50.656;7.188;2023-02-23T17:59:40;31.37;;;24.97;;
9940;SDS011;5009;50.656;7.188;2023-02-23T18:02:06;34.27;;;25.23;;
9940;SDS011;5009;50.656;7.188;2023-02-23T18:04:37;32.60;;;25.20;;
9940;SDS011;5009;50.656;7.188;2023-02-23T18:07:02;34.73;;;26.57;;
9940;SDS011;5009;50.656;7.188;2023-02-23T18:09:28;34.03;;;26.70;;
9940;SDS011;5009;50.656;7.188;2023-02-23T18:11:53;33.20;;;26.60;;
9940;SDS011;5009;50.656;7.188;2023-02-23T18:14:20;35.97;;;26.03;;
9940;SDS011;5009;50.656;7.188;2023-02-23T18:16:46;31.77;;;25.00;;
9940;SDS011;5009;50.656;7.188;2023-02-23T18:19:12;31.10;;;23.63;;
9940;SDS011;5009;50.656;7.188;2023-02-23T18:21:37;35.47;;;25.23;;
9940;SDS011;5009;50.656;7.188;2023-02-23T18:24:05;33.67;;;25.97;;
9940;SDS011;5009;50.656;7.188;2023-02-23T18:26:31;35.33;;;26.30;;
9940;SDS011;5009;50.656;7.188;2023-02-23T18:28:56;32.57;;;25.47;;
9940;SDS011;5009;50.656;7.188;2023-02-23T18:31:23;36.90;;;26.37;;
9940;SDS011;5009;50.656;7.188;2023-02-23T18:33:52;34.90;;;26.30;;
9940;SDS011;5009;50.656;7.188;2023-02-23T18:36:19;34.33;;;25.93;;
9940;SDS011;5009;50.656;7.188;2023-02-23T18:38:50;35.37;;;26.70;;
9940;SDS011;5009;50.656;7.188;2023-02-23T18:41:15;32.23;;;25.97;;
9940;SDS011;5009;50.656;7.188;2023-02-23T18:43:41;38.67;;;28.50;;
9940;SDS011;5009;50.656;7.188;2023-02-23T18:46:10;39.80;;;30.03;;
9940;SDS011;5009;50.656;7.188;2023-02-23T18:48:37;45.80;;;32.77;;
9940;SDS011;5009;50.656;7.188;2023-02-23T18:51:04;48.77;;;36.87;;
9940;SDS011;5009;50.656;7.188;2023-02-23T18:53:35;47.30;;;35.80;;
9940;SDS011;5009;50.656;7.188;2023-02-23T18:56:11;45.93;;;33.13;;
9940;SDS011;5009;50.656;7.188;2023-02-23T18:58:38;45.77;;;33.90;;
9940;SDS011;5009;50.656;7.188;2023-02-23T19:01:18;49.63;;;35.27;;
9940;SDS011;5009;50.656;7.188;2023-02-23T19:03:46;47.43;;;36.63;;
9940;SDS011;5009;50.656;7.188;2023-02-23T19:06:12;48.13;;;35.67;;
9940;SDS011;5009;50.656;7.188;2023-02-23T19:08:40;49.43;;;35.37;;
9940;SDS011;5009;50.656;7.188;2023-02-23T19:11:09;54.93;;;36.53;;
9940;SDS011;5009;50.656;7.188;2023-02-23T19:13:35;49.83;;;35.67;;
9940;SDS011;5009;50.656;7.188;2023-02-23T19:16:05;48.03;;;34.37;;
9940;SDS011;5009;50.656;7.188;2023-02-23T19:18:32;53.17;;;36.27;;
9940;SDS011;5009;50.656;7.188;2023-02-23T19:20:59;49.57;;;34.70;;
9940;SDS011;5009;50.656;7.188;2023-02-23T19:23:25;47.23;;;33.90;;
9940;SDS011;5009;50.656;7.188;2023-02-23T19:25:51;48.97;;;35.17;;
9940;SDS011;5009;50.656;7.188;2023-02-23T19:28:16;45.33;;;33.63;;
9940;SDS011;5009;50.656;7.188;2023-02-23T19:30:42;50.17;;;34.80;;
9940;SDS011;5009;50.656;7.188;2023-02-23T19:33:10;44.87;;;32.47;;
9940;SDS011;5009;50.656;7.188;2023-02-23T19:35:40;44.03;;;32.23;;
9940;SDS011;5009;50.656;7.188;2023-02-23T19:38:06;43.93;;;31.57;;
9940;SDS011;5009;50.656;7.188;2023-02-23T19:40:32;45.57;;;31.60;;
9940;SDS011;5009;50.656;7.188;2023-02-23T19:43:00;41.47;;;29.60;;
9940;SDS011;5009;50.656;7.188;2023-02-23T19:45:27;39.70;;;27.80;;
9940;SDS011;5009;50.656;7.188;2023-02-23T19:47:54;39.10;;;28.23;;
9940;SDS011;5009;50.656;7.188;2023-02-23T19:50:27;41.00;;;29.40;;
9940;SDS011;5009;50.656;7.188;2023-02-23T19:52:53;42.33;;;28.03;;
9940;SDS011;5009;50.656;7.188;2023-02-23T19:55:18;42.40;;;28.80;;
9940;SDS011;5009;50.656;7.188;2023-02-23T19:57:44;40.57;;;28.57;;
9940;SDS011;5009;50.656;7.188;2023-02-23T20:00:11;40.90;;;28.63;;
9940;SDS011;5009;50.656;7.188;2023-02-23T20:02:37;42.70;;;29.43;;
9940;SDS011;5009;50.656;7.188;2023-02-23T20:05:10;39.77;;;27.67;;
9940;SDS011;5009;50.656;7.188;2023-02-23T20:07:37;42.13;;;30.00;;
9940;SDS011;5009;50.656;7.188;2023-02-23T20:10:03;41.83;;;29.07;;
9940;SDS011;5009;50.656;7.188;2023-02-23T20:12:30;44.60;;;29.40;;
9940;SDS011;5009;50.656;7.188;2023-02-23T20:14:56;41.73;;;29.33;;
9940;SDS011;5009;50.656;7.188;2023-02-23T20:17:22;43.73;;;29.50;;
9940;SDS011;5009;50.656;7.188;2023-02-23T20:19:47;43.17;;;29.10;;
9940;SDS011;5009;50.656;7.188;2023-02-23T20:22:13;40.97;;;27.13;;
9940;SDS011;5009;50.656;7.188;2023-02-23T20:24:39;40.77;;;27.40;;
9940;SDS011;5009;50.656;7.188;2023-02-23T20:27:05;42.20;;;29.67;;
9940;SDS011;5009;50.656;7.188;2023-02-23T20:29:31;44.50;;;29.57;;
9940;SDS011;5009;50.656;7.188;2023-02-23T20:31:58;42.40;;;30.03;;
9940;SDS011;5009;50.656;7.188;2023-02-23T20:34:24;39.57;;;27.70;;
9940;SDS011;5009;50.656;7.188;2023-02-23T20:36:50;43.20;;;29.50;;